createdAt,value
2022-12-27T00:00:34.993Z,11.69
2022-12-27T00:03:14.862Z,11.79
2022-12-27T00:05:52.702Z,11.89
2022-12-27T00:08:24.347Z,11.75
2022-12-27T00:11:06.367Z,11.69
2022-12-27T00:13:48.429Z,11.78
2022-12-27T00:16:27.783Z,11.74
2022-12-27T00:19:02.220Z,11.85
2022-12-27T00:21:36.371Z,11.77
2022-12-27T00:24:17.640Z,11.78
2022-12-27T00:26:52.241Z,11.71
2022-12-27T00:29:25.905Z,11.85
2022-12-27T00:31:58.608Z,11.88
2022-12-27T00:34:32.508Z,11.90
2022-12-27T00:37:05.252Z,12.12
2022-12-27T00:39:49.003Z,12.12
2022-12-27T00:42:22.999Z,12.17
2022-12-27T00:44:56.909Z,12.27
2022-12-27T00:47:26.291Z,12.29
2022-12-27T00:49:58.155Z,12.27
2022-12-27T00:52:32.555Z,12.29
2022-12-27T00:55:13.656Z,12.30
2022-12-27T00:57:55.931Z,12.23
2022-12-27T01:00:26.656Z,12.19
2022-12-27T01:02:53.908Z,12.20
2022-12-27T01:05:26.077Z,12.19
2022-12-27T01:07:57.929Z,12.19
2022-12-27T01:10:31.628Z,12.03
2022-12-27T01:13:13.756Z,12.02
2022-12-27T01:15:46.499Z,12.00
2022-12-27T01:18:13.665Z,11.92
2022-12-27T01:20:52.105Z,11.82
2022-12-27T01:23:22.039Z,11.78
2022-12-27T01:26:06.722Z,11.71
2022-12-27T01:28:34.667Z,11.64
2022-12-27T01:31:14.500Z,11.58
2022-12-27T01:33:54.594Z,11.65
2022-12-27T01:36:28.737Z,11.61
2022-12-27T01:39:08.482Z,11.67
2022-12-27T01:42:09.700Z,11.67
2022-12-27T01:44:41.972Z,11.61
2022-12-27T01:47:12.365Z,11.55
2022-12-27T01:50:03.345Z,11.62
2022-12-27T01:52:47.902Z,11.51
2022-12-27T01:55:33.571Z,11.45
2022-12-27T01:58:41.756Z,11.50
2022-12-27T02:01:17.763Z,11.57
2022-12-27T02:04:12.447Z,11.57
2022-12-27T02:06:48.320Z,11.47
2022-12-27T02:09:43.313Z,11.35
2022-12-27T02:12:11.327Z,11.28
2022-12-27T02:14:45.913Z,11.23
2022-12-27T02:17:20.801Z,11.19
2022-12-27T02:20:05.939Z,11.13
2022-12-27T02:23:25.193Z,11.13
2022-12-27T02:27:04.448Z,11.09
2022-12-27T02:29:41.194Z,11.07
2022-12-27T02:32:38.834Z,11.04
2022-12-27T02:35:22.250Z,11.03
2022-12-27T02:38:05.329Z,11.03
2022-12-27T02:40:56.395Z,11.10
2022-12-27T02:43:51.106Z,11.06
2022-12-27T02:46:48.708Z,11.09
2022-12-27T02:49:49.174Z,11.04
2022-12-27T02:53:07.732Z,10.97
2022-12-27T02:56:15.330Z,10.92
2022-12-27T02:59:10.605Z,10.92
2022-12-27T03:02:22.833Z,10.89
2022-12-27T03:05:14.999Z,10.82
2022-12-27T03:08:21.537Z,10.80
2022-12-27T03:11:12.831Z,10.80
2022-12-27T03:14:36.812Z,10.80
2022-12-27T03:17:18.536Z,10.79
2022-12-27T03:20:18.829Z,10.82
2022-12-27T03:23:13.959Z,10.82
2022-12-27T03:25:52.177Z,10.75
2022-12-27T03:28:53.082Z,10.68
2022-12-27T03:31:47.114Z,10.62
2022-12-27T03:34:37.362Z,10.59
2022-12-27T03:37:40.215Z,10.58
2022-12-27T03:40:23.963Z,10.56
2022-12-27T03:43:13.871Z,10.51
2022-12-27T03:46:16.548Z,10.48
2022-12-27T03:48:55.291Z,10.42
2022-12-27T03:51:35.164Z,10.40
2022-12-27T03:54:14.584Z,10.35
2022-12-27T03:56:42.705Z,10.21
2022-12-27T03:59:25.021Z,10.11
2022-12-27T04:02:01.720Z,10.06
2022-12-27T04:04:32.865Z,10.00
2022-12-27T04:07:02.742Z,10.00
2022-12-27T04:09:48.654Z,9.94
2022-12-27T04:12:38.267Z,9.93
2022-12-27T04:15:43.014Z,9.94
2022-12-27T04:18:33.212Z,9.97
2022-12-27T04:21:26.285Z,9.97
2022-12-27T04:24:13.508Z,9.98
2022-12-27T04:27:13.654Z,9.98
2022-12-27T04:30:07.726Z,10.03
2022-12-27T04:33:16.534Z,10.00
2022-12-27T04:35:48.090Z,10.03
2022-12-27T04:38:25.236Z,10.04
2022-12-27T04:41:15.390Z,10.08
2022-12-27T04:44:05.806Z,10.10
2022-12-27T04:46:55.454Z,10.07
2022-12-27T04:49:48.084Z,10.11
2022-12-27T04:52:42.306Z,10.11
2022-12-27T04:55:16.846Z,10.17
2022-12-27T04:57:55.811Z,10.20
2022-12-27T05:00:45.943Z,10.16
2022-12-27T05:03:25.899Z,10.20
2022-12-27T05:06:00.301Z,10.20
2022-12-27T05:08:51.752Z,10.18
2022-12-27T05:11:40.641Z,10.27
2022-12-27T05:14:13.939Z,10.24
2022-12-27T05:16:46.395Z,10.31
2022-12-27T05:19:20.336Z,10.28
2022-12-27T05:22:20.183Z,10.34
2022-12-27T05:25:06.780Z,10.37
2022-12-27T05:27:44.378Z,10.33
2022-12-27T05:30:25.225Z,10.31
2022-12-27T05:33:02.328Z,10.30
2022-12-27T05:35:37.903Z,10.27
2022-12-27T05:38:13.789Z,10.24
2022-12-27T05:40:45.231Z,10.21
2022-12-27T05:43:15.592Z,10.18
2022-12-27T05:45:48.503Z,10.13
2022-12-27T05:48:27.649Z,10.13
2022-12-27T05:51:09.459Z,10.11
2022-12-27T05:53:45.943Z,10.08
2022-12-27T05:56:27.735Z,10.08
2022-12-27T05:58:56.762Z,10.06
2022-12-27T06:01:31.493Z,10.00
2022-12-27T06:04:15.319Z,10.03
2022-12-27T06:06:50.080Z,9.97
2022-12-27T06:09:28.010Z,9.89
2022-12-27T06:11:58.865Z,9.86
2022-12-27T06:14:28.329Z,9.77
2022-12-27T06:17:09.977Z,9.73
2022-12-27T06:19:46.725Z,9.69
2022-12-27T06:22:17.234Z,9.62
2022-12-27T06:24:54.086Z,9.55
2022-12-27T06:27:32.625Z,9.50
2022-12-27T06:30:09.377Z,9.43
2022-12-27T06:32:42.079Z,9.43
2022-12-27T06:35:27.894Z,9.38
2022-12-27T06:38:06.197Z,9.38
2022-12-27T06:40:35.781Z,9.38
2022-12-27T06:43:13.268Z,9.42
2022-12-27T06:46:02.197Z,9.39
2022-12-27T06:48:38.362Z,9.42
2022-12-27T06:51:17.559Z,9.43
2022-12-27T06:53:47.707Z,9.45
2022-12-27T06:56:30.492Z,9.53
2022-12-27T06:59:21.715Z,9.49
2022-12-27T07:01:57.901Z,9.46
2022-12-27T07:04:25.324Z,9.48
2022-12-27T07:07:00.046Z,9.49
2022-12-27T07:09:30.573Z,9.53
2022-12-27T07:11:57.700Z,9.42
2022-12-27T07:14:33.191Z,9.46
2022-12-27T07:17:03.197Z,9.48
2022-12-27T07:19:33.311Z,9.53
2022-12-27T07:22:05.621Z,9.53
2022-12-27T07:24:39.174Z,9.49
2022-12-27T07:27:15.240Z,9.55
2022-12-27T07:29:53.269Z,9.53
2022-12-27T07:32:29.882Z,9.62
2022-12-27T07:35:02.084Z,9.59
2022-12-27T07:37:30.186Z,9.62
2022-12-27T07:40:03.439Z,9.60
2022-12-27T07:42:36.242Z,9.59
2022-12-27T07:45:07.106Z,9.60
2022-12-27T07:47:45.673Z,9.59
2022-12-27T07:50:15.523Z,9.60
2022-12-27T07:52:52.525Z,9.66
2022-12-27T07:55:24.747Z,9.60
2022-12-27T07:57:52.802Z,9.62
2022-12-27T08:00:23.939Z,9.69
2022-12-27T08:02:53.445Z,9.70
2022-12-27T08:05:41.357Z,9.77
2022-12-27T08:08:32.233Z,10.06
2022-12-27T08:11:08.265Z,10.20
2022-12-27T08:13:47.747Z,10.52
2022-12-27T08:16:22.076Z,10.58
2022-12-27T08:18:56.025Z,10.73
2022-12-27T08:21:23.902Z,10.80
2022-12-27T08:23:57.939Z,10.76
2022-12-27T08:26:28.357Z,10.82
2022-12-27T08:29:00.301Z,10.73
2022-12-27T08:31:44.492Z,10.69
2022-12-27T08:34:16.922Z,10.68
2022-12-27T08:36:57.208Z,10.54
2022-12-27T08:39:27.724Z,10.56
2022-12-27T08:42:04.742Z,10.61
2022-12-27T08:44:34.449Z,10.58
2022-12-27T08:47:21.650Z,10.61
2022-12-27T08:49:54.909Z,10.64
2022-12-27T08:52:26.876Z,10.72
2022-12-27T08:55:02.231Z,10.92
2022-12-27T08:57:40.143Z,11.02
2022-12-27T09:04:24.405Z,11.35
2022-12-27T09:06:57.770Z,11.65
2022-12-27T09:09:27.352Z,11.83
2022-12-27T09:12:05.748Z,11.93
2022-12-27T09:14:59.059Z,12.19
2022-12-27T09:17:31.502Z,12.26
2022-12-27T09:20:15.568Z,12.40
2022-12-27T09:23:02.051Z,12.57
2022-12-27T09:25:33.128Z,12.75
2022-12-27T09:30:57.384Z,12.91
2022-12-27T09:33:31.697Z,12.87
2022-12-27T09:36:21.471Z,12.91
2022-12-27T09:38:57.601Z,12.81
2022-12-27T09:45:19.683Z,12.53
2022-12-27T09:48:04.336Z,12.30
2022-12-27T09:50:44.084Z,12.20
2022-12-27T09:53:26.627Z,11.99
2022-12-27T09:56:21.889Z,11.83
2022-12-27T09:59:01.018Z,11.88
2022-12-27T10:01:29.761Z,11.78
2022-12-27T10:04:02.726Z,11.75
2022-12-27T10:06:45.332Z,11.71
2022-12-27T10:09:34.730Z,11.79
2022-12-27T10:12:44.902Z,11.88
2022-12-27T10:15:35.137Z,12.00
2022-12-27T10:18:30.766Z,12.16
2022-12-27T10:21:18.937Z,12.26
2022-12-27T10:24:03.798Z,12.26
2022-12-27T10:26:35.066Z,12.10
2022-12-27T10:29:38.787Z,12.02
2022-12-27T10:32:21.475Z,11.90
2022-12-27T10:35:15.114Z,11.82
2022-12-27T10:37:49.504Z,11.72
2022-12-27T10:40:54.018Z,11.54
2022-12-27T10:43:39.011Z,11.58
2022-12-27T10:46:18.548Z,11.64
2022-12-27T10:51:52.131Z,11.52
2022-12-27T10:54:23.812Z,11.58
2022-12-27T10:56:51.448Z,11.45
2022-12-27T10:59:33.639Z,11.41
2022-12-27T11:02:01.743Z,11.37
2022-12-27T11:04:31.779Z,11.42
2022-12-27T11:07:03.103Z,11.54
2022-12-27T11:09:35.589Z,11.48
2022-12-27T11:12:22.435Z,11.35
2022-12-27T11:14:57.804Z,11.17
2022-12-27T11:17:45.901Z,11.13
2022-12-27T11:20:30.804Z,11.06
2022-12-27T11:23:05.280Z,10.99
2022-12-27T11:25:36.050Z,11.03
2022-12-27T11:28:40.483Z,10.88
2022-12-27T11:31:26.774Z,10.95
2022-12-27T11:38:30.175Z,10.76
2022-12-27T11:42:09.690Z,10.64
2022-12-27T11:44:48.367Z,10.77
2022-12-27T11:47:31.557Z,10.56
2022-12-27T11:50:20.116Z,10.51
2022-12-27T11:52:58.458Z,10.42
2022-12-27T11:55:50.040Z,10.38
2022-12-27T11:58:41.010Z,10.28
2022-12-27T12:01:49.644Z,10.22
2022-12-27T12:04:44.560Z,10.20
2022-12-27T12:07:35.123Z,10.20
2022-12-27T12:10:32.113Z,10.16
2022-12-27T12:13:50.108Z,10.22
2022-12-27T12:17:08.869Z,10.04
2022-12-27T12:19:55.278Z,10.10
2022-12-27T12:22:39.955Z,10.00
2022-12-27T12:25:09.785Z,9.91
2022-12-27T12:27:47.065Z,10.00
2022-12-27T12:30:42.341Z,9.87
2022-12-27T12:33:27.799Z,9.87
2022-12-27T12:36:45.567Z,9.87
2022-12-27T12:39:26.170Z,9.96
2022-12-27T12:42:15.222Z,9.98
2022-12-27T12:45:02.211Z,9.82
2022-12-27T12:47:55.377Z,9.83
2022-12-27T12:50:43.611Z,10.01
2022-12-27T12:53:33.223Z,9.83
2022-12-27T12:56:32.601Z,9.83
2022-12-27T12:59:22.394Z,10.00
2022-12-27T13:02:00.422Z,9.83
2022-12-27T13:05:14.213Z,9.82
2022-12-27T13:08:19.745Z,9.80
2022-12-27T13:11:08.457Z,9.73
2022-12-27T13:13:49.936Z,9.70
2022-12-27T13:16:52.374Z,9.77
2022-12-27T13:19:50.120Z,9.66
2022-12-27T13:22:29.793Z,9.60
2022-12-27T13:25:21.641Z,9.70
2022-12-27T13:28:25.313Z,9.73
2022-12-27T13:31:39.872Z,9.89
2022-12-27T13:34:36.302Z,9.42
2022-12-27T13:37:37.864Z,9.38
2022-12-27T13:40:44.781Z,9.49
2022-12-27T13:43:38.027Z,9.46
2022-12-27T13:46:42.072Z,9.32
2022-12-27T13:49:46.292Z,9.22
2022-12-27T13:52:14.549Z,9.25
2022-12-27T13:55:31.041Z,9.31
2022-12-27T13:58:26.266Z,9.32
2022-12-27T14:01:25.762Z,9.21
2022-12-27T14:04:31.487Z,9.11
2022-12-27T14:07:37.307Z,9.00
2022-12-27T14:10:22.807Z,8.97
2022-12-27T14:13:05.595Z,8.90
2022-12-27T14:15:57.542Z,8.88
2022-12-27T14:18:36.528Z,8.85
2022-12-27T14:22:05.467Z,8.83
2022-12-27T14:24:54.918Z,8.70
2022-12-27T14:27:53.831Z,8.81
2022-12-27T14:30:41.384Z,8.70
2022-12-27T14:33:47.749Z,8.77
2022-12-27T14:36:43.093Z,8.67
2022-12-27T14:39:37.292Z,8.60
2022-12-27T14:42:44.698Z,8.57
2022-12-27T14:45:28.183Z,8.60
2022-12-27T14:48:27.210Z,8.50
2022-12-27T14:51:58.652Z,8.56
2022-12-27T14:54:58.259Z,8.41
2022-12-27T14:57:33.867Z,8.41
2022-12-27T15:00:09.042Z,8.25
2022-12-27T15:02:53.965Z,8.12
2022-12-27T15:05:39.873Z,8.15
2022-12-27T15:08:48.633Z,8.21
2022-12-27T15:11:40.173Z,8.24
2022-12-27T15:14:38.874Z,8.05
2022-12-27T15:17:38.095Z,8.02
2022-12-27T15:20:44.595Z,8.05
2022-12-27T15:23:18.943Z,7.93
2022-12-27T15:26:23.008Z,7.91
2022-12-27T15:29:11.580Z,8.07
2022-12-27T15:32:06.214Z,7.97
2022-12-27T15:34:44.422Z,7.88
2022-12-27T15:37:48.463Z,7.94
2022-12-27T15:40:33.425Z,7.83
2022-12-27T15:43:13.161Z,7.63
2022-12-27T15:46:23.329Z,7.66
2022-12-27T15:49:07.686Z,7.67
2022-12-27T15:52:16.953Z,7.65
2022-12-27T15:55:20.922Z,7.67
2022-12-27T15:58:05.393Z,7.55
2022-12-27T16:00:44.926Z,7.47
2022-12-27T16:04:04.938Z,7.50
2022-12-27T16:06:37.690Z,7.55
2022-12-27T16:09:28.183Z,7.73
2022-12-27T16:12:40.963Z,7.47
2022-12-27T16:15:57.951Z,7.50
2022-12-27T16:18:37.416Z,7.40
2022-12-27T16:21:20.336Z,7.36
2022-12-27T16:24:25.727Z,7.38
2022-12-27T16:27:06.748Z,7.39
2022-12-27T16:29:49.687Z,7.39
2022-12-27T16:32:24.957Z,7.30
2022-12-27T16:35:04.911Z,7.26
2022-12-27T16:37:45.127Z,7.30
2022-12-27T16:40:54.578Z,7.19
2022-12-27T16:43:47.000Z,7.14
2022-12-27T16:46:39.303Z,7.38
2022-12-27T16:49:42.276Z,7.40
2022-12-27T16:52:34.366Z,7.38
2022-12-27T16:55:38.871Z,7.29
2022-12-27T16:58:31.792Z,7.21
2022-12-27T17:01:27.791Z,7.18
2022-12-27T17:04:04.657Z,7.18
2022-12-27T17:06:34.769Z,7.04
2022-12-27T17:09:11.891Z,7.11
2022-12-27T17:11:48.325Z,7.05
2022-12-27T17:14:31.219Z,6.87
2022-12-27T17:17:25.075Z,6.94
2022-12-27T17:20:08.035Z,6.87
2022-12-27T17:22:52.561Z,6.77
2022-12-27T17:25:44.857Z,6.94
2022-12-27T17:28:36.953Z,6.79
2022-12-27T17:31:39.026Z,6.77
2022-12-27T17:34:41.996Z,6.85
2022-12-27T17:37:35.217Z,6.92
2022-12-27T17:40:19.124Z,6.79
2022-12-27T17:43:10.816Z,6.73
2022-12-27T17:46:05.020Z,6.74
2022-12-27T17:48:36.478Z,6.60
2022-12-27T17:51:21.436Z,6.39
2022-12-27T17:54:13.347Z,6.56
2022-12-27T17:57:18.815Z,6.47
2022-12-27T17:59:54.740Z,6.34
2022-12-27T18:02:39.268Z,6.19
2022-12-27T18:05:17.977Z,6.21
2022-12-27T18:07:55.029Z,6.08
2022-12-27T18:10:33.107Z,6.11
2022-12-27T18:13:05.847Z,5.97
2022-12-27T18:15:44.516Z,5.90
2022-12-27T18:18:42.065Z,5.79
2022-12-27T18:21:34.162Z,5.66
2022-12-27T18:24:23.733Z,5.51
2022-12-27T18:27:04.374Z,5.39
2022-12-27T18:29:34.488Z,5.30
2022-12-27T18:32:10.275Z,5.25
2022-12-27T18:34:55.198Z,5.18
2022-12-27T18:37:24.571Z,5.25
2022-12-27T18:40:00.543Z,5.12
2022-12-27T18:42:37.538Z,5.26
2022-12-27T18:45:26.352Z,5.15
2022-12-27T18:47:56.954Z,5.11
2022-12-27T18:50:32.174Z,4.99
2022-12-27T18:53:28.388Z,5.06
2022-12-27T18:56:06.540Z,5.11
2022-12-27T18:58:41.009Z,5.08
2022-12-27T19:01:23.385Z,5.06
2022-12-27T19:04:15.333Z,5.04
2022-12-27T19:07:15.265Z,5.06
2022-12-27T19:09:53.550Z,5.08
2022-12-27T19:12:42.094Z,4.96
2022-12-27T19:15:29.103Z,4.89
2022-12-27T19:18:07.059Z,4.95
2022-12-27T19:20:40.062Z,4.82
2022-12-27T19:23:40.259Z,4.85
2022-12-27T19:26:32.470Z,4.91
2022-12-27T19:29:11.355Z,4.87
2022-12-27T19:31:43.249Z,4.85
2022-12-27T19:38:47.548Z,4.62
2022-12-27T19:41:31.786Z,4.64
2022-12-27T19:44:03.019Z,4.51
2022-12-27T19:46:34.268Z,4.53
2022-12-27T19:51:56.064Z,4.44
2022-12-27T19:54:36.393Z,4.46
2022-12-27T19:57:14.325Z,4.51
2022-12-27T20:00:12.875Z,4.62
2022-12-27T20:02:46.804Z,4.44
2022-12-27T20:06:11.197Z,4.23
2022-12-27T20:08:22.942Z,4.20
2022-12-27T20:10:58.655Z,4.19
2022-12-27T20:13:26.653Z,4.32
2022-12-27T20:15:56.003Z,4.24
2022-12-27T20:18:37.222Z,4.17
2022-12-27T20:21:07.568Z,3.95
2022-12-27T20:23:40.980Z,3.67
2022-12-27T20:26:25.023Z,3.61
2022-12-27T20:29:05.731Z,3.55
2022-12-27T20:31:45.370Z,3.58
2022-12-27T20:34:23.542Z,3.48
2022-12-27T20:36:59.316Z,3.51
2022-12-27T20:39:26.508Z,3.53
2022-12-27T20:42:05.911Z,3.57
2022-12-27T20:45:07.004Z,3.74
2022-12-27T20:47:44.107Z,3.85
2022-12-27T20:50:21.936Z,3.91
2022-12-27T20:52:56.866Z,3.95
2022-12-27T20:55:31.139Z,3.95
2022-12-27T20:58:11.196Z,4.01
2022-12-27T21:00:43.135Z,3.91
2022-12-27T21:03:13.016Z,3.98
2022-12-27T21:05:41.587Z,3.99
2022-12-27T21:08:12.997Z,3.98
2022-12-27T21:10:53.721Z,3.99
2022-12-27T21:13:23.581Z,3.99
2022-12-27T21:15:53.458Z,3.95
2022-12-27T21:18:47.460Z,3.96
2022-12-27T21:21:27.347Z,3.98
2022-12-27T21:24:07.789Z,3.88
2022-12-27T21:26:44.823Z,3.81
2022-12-27T21:29:12.395Z,3.79
2022-12-27T21:34:37.152Z,3.85
2022-12-27T21:37:13.419Z,3.89
2022-12-27T21:39:47.136Z,3.88
2022-12-27T21:42:20.720Z,3.77
2022-12-27T21:45:00.019Z,3.72
2022-12-27T21:47:31.622Z,3.70
2022-12-27T21:50:02.817Z,3.55
2022-12-27T21:52:42.944Z,3.55
2022-12-27T21:55:16.415Z,3.57
2022-12-27T21:57:46.762Z,3.60
2022-12-27T22:04:39.521Z,3.51
2022-12-27T22:07:17.459Z,3.51
2022-12-27T22:10:59.414Z,3.58
2022-12-27T22:14:13.860Z,3.54
2022-12-27T22:16:43.637Z,3.64
2022-12-27T22:19:13.903Z,3.61
2022-12-27T22:21:43.959Z,3.65
2022-12-27T22:24:19.591Z,3.68
2022-12-27T22:26:51.341Z,3.71
2022-12-27T22:29:29.315Z,3.68
2022-12-27T22:32:12.319Z,3.63
2022-12-27T22:37:50.222Z,3.70
2022-12-27T22:40:30.992Z,3.60
2022-12-27T22:43:06.353Z,3.70
2022-12-27T22:45:35.376Z,3.70
2022-12-27T22:48:16.779Z,3.67
2022-12-27T22:50:50.393Z,3.68
2022-12-27T22:53:22.566Z,3.71
2022-12-27T22:56:17.447Z,3.68
2022-12-27T22:58:49.634Z,3.38
2022-12-27T23:01:27.658Z,3.27
2022-12-27T23:04:00.151Z,3.15
2022-12-27T23:06:36.695Z,3.09
2022-12-27T23:09:13.368Z,3.12
2022-12-27T23:11:49.662Z,3.19
2022-12-27T23:14:22.581Z,3.26
2022-12-27T23:16:54.565Z,3.34
2022-12-27T23:19:32.135Z,3.28
2022-12-27T23:22:15.726Z,3.38
2022-12-27T23:25:03.079Z,3.36
2022-12-27T23:27:42.513Z,3.37
2022-12-27T23:30:20.991Z,3.40
2022-12-27T23:32:53.191Z,3.20
2022-12-27T23:35:27.444Z,3.16
2022-12-27T23:37:54.613Z,3.06
2022-12-27T23:40:32.234Z,2.71
2022-12-27T23:43:50.508Z,2.74
2022-12-27T23:46:32.631Z,2.84
2022-12-27T23:49:45.388Z,2.75
2022-12-27T23:52:12.641Z,2.91
2022-12-27T23:54:46.254Z,2.75
2022-12-27T23:57:19.965Z,2.51
2022-12-27T23:59:54.640Z,2.24
